Time;durP1;ratioP1;P1;durP2;ratioP2;P2;SDS_P1;SDS_P2;PMS_P1;PMS_P2;Temp;Humidity;BMP_temperature;BMP_pressure;BME280_temperature;BME280_humidity;BME280_pressure;Samples;Min_cycle;Max_cycle;Signal;HPM_P1;HPM_P2
2023/07/01 00:01:17;;;;;;;9.80;2.97;;;18.00;96.00;;;;;;5033119;28;20040;-71
2023/07/01 00:03:43;;;;;;;5.70;1.52;;;17.90;95.90;;;;;;5038991;28;20082;-72
2023/07/01 00:06:09;;;;;;;3.97;2.15;;;18.00;96.00;;;;;;5028505;28;20049;-72
2023/07/01 00:08:34;;;;;;;7.28;2.35;;;18.00;96.00;;;;;;5071151;28;20496;-72
2023/07/01 00:11:00;;;;;;;5.13;2.10;;;17.90;96.10;;;;;;5053021;28;20039;-72
2023/07/01 00:13:29;;;;;;;3.42;1.60;;;18.00;96.10;;;;;;5071004;28;20042;-72
2023/07/01 00:15:55;;;;;;;5.65;2.08;;;17.90;96.20;;;;;;5045019;28;20439;-72
2023/07/01 00:18:21;;;;;;;6.70;1.50;;;17.90;96.00;;;;;;5052929;28;20048;-71
2023/07/01 00:20:47;;;;;;;8.43;2.38;;;17.90;95.90;;;;;;5052957;28;20044;-72
2023/07/01 00:23:13;;;;;;;7.13;1.98;;;17.90;95.80;;;;;;5053206;28;20041;-71
2023/07/01 00:25:38;;;;;;;6.47;2.30;;;18.00;95.70;;;;;;5053404;28;20059;-71
2023/07/01 00:28:04;;;;;;;3.65;1.98;;;18.00;95.90;;;;;;5052851;28;20070;-72
2023/07/01 00:30:29;;;;;;;5.57;1.95;;;18.00;96.00;;;;;;5052819;28;20045;-72
2023/07/01 00:32:55;;;;;;;5.45;1.80;;;18.00;96.10;;;;;;5070937;28;20075;-72
2023/07/01 00:35:20;;;;;;;8.82;1.90;;;18.00;96.00;;;;;;5071158;28;20036;-71
2023/07/01 00:37:46;;;;;;;5.13;2.03;;;18.00;96.10;;;;;;5070715;28;20041;-71
2023/07/01 00:40:12;;;;;;;6.50;1.92;;;18.00;96.20;;;;;;5044435;28;20419;-71
2023/07/01 00:42:37;;;;;;;8.25;2.03;;;18.00;96.20;;;;;;5053052;28;20075;-71
2023/07/01 00:45:04;;;;;;;5.57;2.58;;;18.00;96.40;;;;;;5052613;28;20048;-72
2023/07/01 00:47:29;;;;;;;6.55;2.40;;;18.00;96.70;;;;;;5070606;28;20041;-72
2023/07/01 00:49:56;;;;;;;4.40;1.63;;;18.00;96.80;;;;;;5071500;28;20086;-72
2023/07/01 00:52:22;;;;;;;8.05;2.13;;;18.00;96.90;;;;;;5074804;28;20033;-72
2023/07/01 00:54:48;;;;;;;6.40;1.73;;;18.00;96.90;;;;;;5074629;28;20043;-71
2023/07/01 00:57:14;;;;;;;6.22;2.47;;;18.00;97.30;;;;;;5074240;28;20044;-71
2023/07/01 00:59:40;;;;;;;8.05;2.00;;;18.00;97.40;;;;;;5056674;28;20039;-72
2023/07/01 01:02:21;;;;;;;5.47;1.90;;;18.00;97.50;;;;;;5055996;28;20055;-72
2023/07/01 01:05:01;;;;;;;4.95;1.92;;;18.00;97.70;;;;;;5048090;28;20076;-71
2023/07/01 01:07:36;;;;;;;5.55;2.05;;;17.90;97.90;;;;;;5056018;28;20036;-71
2023/07/01 01:10:09;;;;;;;4.22;1.60;;;18.00;98.00;;;;;;5073959;28;20041;-71
2023/07/01 01:12:37;;;;;;;5.18;2.00;;;17.90;98.30;;;;;;5074209;28;20450;-71
2023/07/01 01:15:03;;;;;;;8.32;2.30;;;18.00;98.20;;;;;;5056271;28;20481;-72
2023/07/01 01:17:30;;;;;;;3.83;1.60;;;17.90;98.60;;;;;;5039346;28;20048;-71
2023/07/01 01:19:59;;;;;;;8.38;1.75;;;17.90;98.80;;;;;;5073884;28;20048;-72
2023/07/01 01:22:38;;;;;;;7.55;1.88;;;17.90;98.90;;;;;;5056137;28;20524;-72
2023/07/01 01:25:10;;;;;;;8.73;1.90;;;17.90;99.10;;;;;;5055743;28;20051;-73
2023/07/01 01:27:40;;;;;;;5.50;2.10;;;17.90;99.20;;;;;;5055812;28;20062;-72
2023/07/01 01:30:07;;;;;;;6.10;1.92;;;17.90;99.40;;;;;;5072490;28;20620;-72
2023/07/01 01:32:37;;;;;;;4.35;2.10;;;17.90;99.50;;;;;;5054860;28;20040;-72
2023/07/01 01:35:03;;;;;;;4.05;1.98;;;17.90;99.60;;;;;;5054829;28;20084;-72
2023/07/01 01:37:45;;;;;;;9.20;2.25;;;17.90;99.50;;;;;;5072235;28;20079;-72
2023/07/01 01:40:22;;;;;;;7.68;2.00;;;17.90;99.70;;;;;;5072357;28;20056;-72
2023/07/01 01:42:47;;;;;;;7.05;1.95;;;17.90;99.90;;;;;;5073566;28;20036;-72
2023/07/01 01:45:16;;;;;;;4.80;2.20;;;17.90;99.80;;;;;;5073536;28;20048;-73
2023/07/01 01:47:42;;;;;;;5.40;2.05;;;17.90;99.90;;;;;;5055318;28;20040;-73
2023/07/01 01:50:10;;;;;;;7.88;2.17;;;17.90;99.90;;;;;;5054998;28;20048;-73
2023/07/01 01:52:38;;;;;;;7.53;2.15;;;17.90;99.90;;;;;;5055664;28;20048;-73
2023/07/01 01:55:06;;;;;;;7.28;2.38;;;17.90;99.90;;;;;;5054948;28;20044;-73
2023/07/01 01:57:31;;;;;;;4.97;2.10;;;17.90;99.90;;;;;;5073321;28;20082;-72
2023/07/01 01:59:57;;;;;;;6.68;2.63;;;17.80;99.90;;;;;;5072849;28;20072;-72
2023/07/01 02:02:23;;;;;;;10.52;3.13;;;17.80;99.90;;;;;;5072543;28;20041;-72
2023/07/01 02:04:48;;;;;;;7.13;2.88;;;17.70;99.90;;;;;;5072922;28;20044;-72
2023/07/01 02:07:14;;;;;;;7.03;2.78;;;17.70;99.90;;;;;;5072951;28;20037;-72
2023/07/01 02:09:39;;;;;;;6.80;3.08;;;17.60;99.90;;;;;;5055261;28;20439;-72
2023/07/01 02:12:05;;;;;;;7.50;2.70;;;17.40;99.90;;;;;;5055229;28;20036;-72
2023/07/01 02:14:31;;;;;;;5.63;2.92;;;17.30;99.90;;;;;;5072861;28;20036;-72
2023/07/01 02:16:57;;;;;;;6.43;2.63;;;17.10;99.90;;;;;;5072767;28;20033;-73
2023/07/01 02:19:22;;;;;;;7.60;2.97;;;17.10;99.90;;;;;;5073016;28;20722;-72
2023/07/01 02:21:48;;;;;;;6.32;2.95;;;17.00;99.90;;;;;;5072682;28;20033;-72
2023/07/01 02:24:14;;;;;;;7.85;3.20;;;17.00;99.90;;;;;;5072302;28;20508;-72
2023/07/01 02:26:39;;;;;;;13.35;2.75;;;16.90;99.90;;;;;;5054942;28;20040;-73
2023/07/01 02:29:05;;;;;;;9.98;2.97;;;16.90;99.90;;;;;;5054811;28;20044;-73
2023/07/01 02:31:31;;;;;;;7.03;2.70;;;16.90;99.90;;;;;;5072479;28;20845;-72
2023/07/01 02:34:00;;;;;;;4.13;2.60;;;16.80;99.90;;;;;;5055004;28;20072;-72
2023/07/01 02:36:26;;;;;;;7.32;2.90;;;16.90;99.90;;;;;;5072799;28;20044;-73
2023/07/01 02:38:51;;;;;;;5.45;2.75;;;16.90;99.90;;;;;;5054441;28;20040;-73
2023/07/01 02:41:17;;;;;;;5.60;2.90;;;16.90;99.90;;;;;;5054260;28;20051;-73
2023/07/01 02:43:42;;;;;;;7.32;3.10;;;16.90;99.90;;;;;;5054425;28;20037;-73
2023/07/01 02:46:08;;;;;;;9.88;3.65;;;16.90;99.90;;;;;;5072450;28;20456;-73
2023/07/01 02:48:33;;;;;;;10.43;3.30;;;17.00;99.90;;;;;;5072062;28;20594;-72
2023/07/01 02:50:59;;;;;;;6.45;3.15;;;17.00;99.90;;;;;;5054441;28;20049;-73
2023/07/01 02:53:25;;;;;;;5.03;3.63;;;17.00;99.90;;;;;;5054109;28;20078;-73
2023/07/01 02:55:50;;;;;;;7.00;3.22;;;17.00;99.90;;;;;;5072416;28;20047;-72
2023/07/01 02:58:16;;;;;;;8.18;4.20;;;16.90;99.90;;;;;;5071894;28;20047;-73
2023/07/01 03:00:41;;;;;;;9.68;4.07;;;16.90;99.90;;;;;;5053606;28;20048;-73
2023/07/01 03:03:07;;;;;;;6.40;3.72;;;16.90;99.90;;;;;;5072097;28;20128;-72
2023/07/01 03:05:36;;;;;;;7.28;3.65;;;16.90;99.90;;;;;;5072076;28;20086;-73
2023/07/01 03:08:03;;;;;;;9.07;3.92;;;17.00;99.90;;;;;;5071620;28;20032;-72
2023/07/01 03:10:28;;;;;;;9.05;3.90;;;17.00;99.90;;;;;;5071549;28;20043;-73
2023/07/01 03:12:55;;;;;;;5.60;3.65;;;16.90;99.90;;;;;;5071905;28;20040;-72
2023/07/01 03:15:20;;;;;;;8.27;3.88;;;17.00;99.90;;;;;;5071611;28;20080;-73
2023/07/01 03:17:49;;;;;;;6.47;4.20;;;16.90;99.90;;;;;;5053680;28;20040;-72
2023/07/01 03:20:23;;;;;;;11.32;3.97;;;17.00;99.90;;;;;;5071707;28;20036;-72
2023/07/01 03:22:53;;;;;;;7.05;3.63;;;16.90;99.90;;;;;;5071893;28;20040;-72
2023/07/01 03:25:19;;;;;;;4.20;3.17;;;17.00;99.90;;;;;;5053563;28;20037;-72
2023/07/01 03:27:45;;;;;;;4.78;3.33;;;17.00;99.90;;;;;;5071299;28;20078;-72
2023/07/01 03:30:13;;;;;;;8.18;3.85;;;17.00;99.90;;;;;;5036779;28;20121;-72
2023/07/01 03:32:40;;;;;;;6.72;3.53;;;17.00;99.90;;;;;;5053883;28;20072;-73
2023/07/01 03:35:06;;;;;;;7.35;3.60;;;17.00;99.90;;;;;;5071675;28;20040;-72
2023/07/01 03:37:32;;;;;;;11.00;3.75;;;17.00;99.90;;;;;;5071398;28;20089;-72
2023/07/01 03:39:57;;;;;;;7.47;3.67;;;17.00;99.90;;;;;;5071279;28;20043;-72
2023/07/01 03:42:23;;;;;;;5.60;4.05;;;17.00;99.90;;;;;;5071545;28;20385;-72
2023/07/01 03:44:48;;;;;;;8.60;3.83;;;16.90;99.90;;;;;;5053091;28;20105;-72
2023/07/01 03:47:14;;;;;;;7.78;3.30;;;17.00;99.90;;;;;;5053276;28;20148;-72
2023/07/01 03:49:39;;;;;;;5.18;3.35;;;16.90;99.90;;;;;;5071597;28;20070;-72
2023/07/01 03:52:06;;;;;;;5.82;3.13;;;16.80;99.90;;;;;;5036475;28;20048;-73
2023/07/01 03:54:32;;;;;;;7.15;3.38;;;16.80;99.90;;;;;;5071140;28;20504;-72
2023/07/01 03:56:57;;;;;;;9.23;3.30;;;16.80;99.90;;;;;;5071220;28;20037;-73
2023/07/01 03:59:23;;;;;;;6.28;3.67;;;16.80;99.90;;;;;;5071341;28;20048;-72
2023/07/01 04:01:48;;;;;;;7.03;3.63;;;16.70;99.90;;;;;;5070624;28;20042;-72
2023/07/01 04:04:14;;;;;;;6.25;3.22;;;16.70;99.90;;;;;;5053284;28;20068;-73
2023/07/01 04:06:40;;;;;;;7.22;3.75;;;16.70;99.90;;;;;;5071377;28;20397;-72
2023/07/01 04:09:07;;;;;;;5.32;3.10;;;16.70;99.90;;;;;;5071072;28;20128;-73
2023/07/01 04:11:32;;;;;;;5.63;2.90;;;16.70;99.90;;;;;;5070622;28;20543;-73
2023/07/01 04:13:58;;;;;;;5.63;3.58;;;16.70;99.90;;;;;;5070796;28;20037;-72
2023/07/01 04:16:23;;;;;;;7.25;3.67;;;16.60;99.90;;;;;;5071175;28;20044;-72
2023/07/01 04:18:49;;;;;;;5.93;3.38;;;16.60;99.90;;;;;;5070970;28;20041;-72
2023/07/01 04:21:15;;;;;;;6.65;3.65;;;16.60;99.90;;;;;;5070821;28;20115;-73
2023/07/01 04:23:40;;;;;;;4.72;3.22;;;16.60;99.90;;;;;;5052841;28;20121;-73
2023/07/01 04:26:06;;;;;;;5.53;3.13;;;16.60;99.90;;;;;;5074136;28;20044;-72
2023/07/01 04:28:32;;;;;;;6.65;3.03;;;16.60;99.90;;;;;;5056737;28;20079;-72
2023/07/01 04:30:57;;;;;;;5.68;3.00;;;16.70;99.90;;;;;;5074776;28;20040;-72
2023/07/01 04:33:23;;;;;;;7.45;3.20;;;16.70;99.90;;;;;;5075089;28;20554;-72
2023/07/01 04:35:49;;;;;;;8.40;3.55;;;16.70;99.90;;;;;;5074827;28;20466;-72
2023/07/01 04:38:14;;;;;;;5.65;2.85;;;16.60;99.90;;;;;;5074595;28;20059;-72
2023/07/01 04:40:40;;;;;;;5.85;3.22;;;16.70;99.90;;;;;;5074478;28;20496;-72
2023/07/01 04:43:05;;;;;;;8.77;3.03;;;16.70;99.90;;;;;;5074566;28;20457;-72
2023/07/01 04:45:33;;;;;;;6.30;3.30;;;16.70;99.90;;;;;;5074790;28;20416;-72
2023/07/01 04:48:00;;;;;;;6.90;3.30;;;16.70;99.90;;;;;;5074435;28;20042;-72
2023/07/01 04:50:25;;;;;;;6.53;3.60;;;16.70;99.90;;;;;;5056683;28;20041;-72
2023/07/01 04:52:51;;;;;;;7.03;4.03;;;16.70;99.90;;;;;;5056691;28;20562;-73
2023/07/01 04:55:18;;;;;;;4.75;3.00;;;16.70;99.90;;;;;;5074300;28;20043;-72
2023/07/01 04:57:44;;;;;;;9.18;3.40;;;16.70;99.90;;;;;;5074114;28;20565;-73
2023/07/01 05:00:10;;;;;;;7.40;3.65;;;16.80;99.90;;;;;;5074164;28;20068;-72
2023/07/01 05:02:36;;;;;;;6.22;2.92;;;16.80;99.90;;;;;;5074479;28;20048;-72
2023/07/01 05:05:03;;;;;;;9.48;4.10;;;16.80;99.90;;;;;;5074127;28;20041;-72
2023/07/01 05:07:28;;;;;;;5.20;3.20;;;16.70;99.90;;;;;;5074204;28;20047;-73
2023/07/01 05:09:54;;;;;;;8.20;3.75;;;16.80;99.90;;;;;;5073731;28;20396;-71
2023/07/01 05:12:19;;;;;;;6.30;3.75;;;16.90;99.90;;;;;;5074534;28;20074;-71
2023/07/01 05:14:45;;;;;;;5.10;3.17;;;16.80;99.90;;;;;;5056156;28;20036;-71
2023/07/01 05:17:10;;;;;;;6.13;3.40;;;16.90;99.90;;;;;;5073862;28;20526;-72
2023/07/01 05:19:36;;;;;;;6.38;3.67;;;16.80;99.90;;;;;;5074097;28;20045;-71
2023/07/01 05:22:02;;;;;;;8.63;4.13;;;16.80;99.90;;;;;;5073699;28;20048;-71
2023/07/01 05:24:27;;;;;;;6.53;3.83;;;16.90;99.90;;;;;;5055490;28;20032;-71
2023/07/01 05:26:53;;;;;;;7.88;3.83;;;16.80;99.90;;;;;;5073574;28;20037;-71
2023/07/01 05:29:22;;;;;;;6.13;3.42;;;16.80;99.90;;;;;;5056011;28;20039;-71
2023/07/01 05:31:48;;;;;;;5.32;3.30;;;16.90;99.90;;;;;;5073658;28;20044;-72
2023/07/01 05:34:15;;;;;;;4.43;3.13;;;16.90;99.90;;;;;;5073467;28;20122;-72
2023/07/01 05:36:40;;;;;;;6.93;3.75;;;16.80;99.90;;;;;;5072646;28;20101;-72
2023/07/01 05:39:06;;;;;;;9.48;3.95;;;16.80;99.90;;;;;;5073456;28;20535;-71
2023/07/01 05:41:32;;;;;;;6.30;4.05;;;16.90;99.90;;;;;;5055489;28;20063;-71
2023/07/01 05:43:57;;;;;;;6.70;4.05;;;16.80;99.90;;;;;;5038886;28;20052;-71
2023/07/01 05:46:23;;;;;;;5.25;3.78;;;16.90;99.90;;;;;;5073247;28;20037;-72
2023/07/01 05:48:48;;;;;;;8.15;4.10;;;16.90;99.90;;;;;;5055282;28;20040;-72
2023/07/01 05:51:14;;;;;;;7.70;3.72;;;17.00;99.90;;;;;;5073196;28;20036;-71
2023/07/01 05:53:39;;;;;;;5.57;3.92;;;17.00;99.90;;;;;;5073314;28;20047;-71
2023/07/01 05:56:05;;;;;;;6.90;4.70;;;16.90;99.90;;;;;;5073294;28;20054;-71
2023/07/01 05:58:31;;;;;;;7.35;3.63;;;17.00;99.90;;;;;;5054971;28;20049;-72
2023/07/01 06:00:56;;;;;;;12.68;3.85;;;17.00;99.90;;;;;;5072846;28;20045;-71
2023/07/01 06:03:22;;;;;;;4.60;3.92;;;16.90;99.90;;;;;;5073031;28;20037;-71
2023/07/01 06:05:47;;;;;;;8.15;4.10;;;17.00;99.90;;;;;;5072941;28;20086;-71
2023/07/01 06:08:13;;;;;;;10.02;3.90;;;17.00;99.90;;;;;;5072681;28;20102;-72
2023/07/01 06:10:38;;;;;;;10.50;4.75;;;17.10;99.90;;;;;;5055385;28;20052;-71
2023/07/01 06:13:04;;;;;;;6.97;3.67;;;17.00;99.90;;;;;;5073479;28;20157;-71
2023/07/01 06:15:29;;;;;;;6.68;4.07;;;17.10;99.90;;;;;;5055312;28;20052;-71
2023/07/01 06:17:55;;;;;;;11.15;4.05;;;17.00;99.90;;;;;;5074175;28;20032;-72
2023/07/01 06:20:21;;;;;;;6.68;3.88;;;17.00;99.90;;;;;;5055143;28;20043;-72
2023/07/01 06:22:46;;;;;;;5.60;4.18;;;16.90;99.90;;;;;;5074446;28;20123;-71
2023/07/01 06:25:13;;;;;;;6.47;3.83;;;17.10;99.90;;;;;;5074611;28;20036;-72
2023/07/01 06:27:39;;;;;;;7.95;5.00;;;17.00;99.90;;;;;;5056906;28;20044;-71
2023/07/01 06:30:05;;;;;;;8.13;4.15;;;17.10;99.90;;;;;;5056109;28;20440;-71
2023/07/01 06:32:31;;;;;;;8.82;4.30;;;16.90;99.90;;;;;;5072809;28;20047;-71
2023/07/01 06:34:56;;;;;;;10.38;3.60;;;17.00;99.90;;;;;;5054492;28;20044;-71
2023/07/01 06:37:22;;;;;;;5.05;4.47;;;17.00;99.90;;;;;;5072560;28;20040;-70
2023/07/01 06:39:47;;;;;;;8.10;4.72;;;16.90;99.90;;;;;;5073491;28;20083;-71
2023/07/01 06:42:13;;;;;;;8.32;4.38;;;17.00;99.90;;;;;;5073731;28;20032;-71
2023/07/01 06:44:39;;;;;;;5.68;4.80;;;16.80;99.90;;;;;;5073272;28;20059;-71
2023/07/01 06:47:05;;;;;;;7.28;4.47;;;16.90;99.90;;;;;;5073276;28;20032;-71
2023/07/01 06:49:33;;;;;;;9.25;5.55;;;16.80;99.90;;;;;;5072239;28;20047;-71
2023/07/01 06:51:59;;;;;;;7.05;4.50;;;16.90;99.90;;;;;;5071847;28;20500;-71
2023/07/01 06:54:24;;;;;;;9.45;4.97;;;16.80;99.90;;;;;;5072224;28;20115;-71
2023/07/01 06:56:50;;;;;;;6.70;4.97;;;16.70;99.90;;;;;;5072793;28;20385;-71
2023/07/01 06:59:16;;;;;;;8.63;5.00;;;16.80;99.90;;;;;;5072367;28;20173;-71
2023/07/01 07:01:41;;;;;;;6.07;4.95;;;16.80;99.90;;;;;;5072704;28;20103;-71
2023/07/01 07:04:07;;;;;;;7.05;4.70;;;16.80;99.90;;;;;;5072859;28;20116;-71
2023/07/01 07:06:32;;;;;;;6.30;4.97;;;16.90;99.90;;;;;;5037979;28;20052;-71
2023/07/01 07:08:58;;;;;;;7.65;5.00;;;16.90;99.90;;;;;;5054401;28;20047;-72
2023/07/01 07:11:24;;;;;;;7.82;5.32;;;17.00;99.90;;;;;;5074625;28;20059;-72
2023/07/01 07:13:50;;;;;;;5.65;4.93;;;16.70;99.90;;;;;;5056253;28;20078;-72
2023/07/01 07:16:15;;;;;;;6.65;4.60;;;16.90;99.90;;;;;;5073384;28;20044;-72
2023/07/01 07:18:41;;;;;;;8.57;5.25;;;17.00;99.90;;;;;;5055245;28;20051;-71
2023/07/01 07:21:06;;;;;;;5.80;4.80;;;16.90;99.90;;;;;;5054092;28;20036;-72
2023/07/01 07:23:32;;;;;;;6.55;4.70;;;17.00;99.90;;;;;;5054527;28;20040;-72
2023/07/01 07:25:57;;;;;;;5.55;4.95;;;16.80;99.90;;;;;;5054821;28;20492;-72
2023/07/01 07:28:23;;;;;;;5.05;4.55;;;16.90;99.90;;;;;;5071840;28;20527;-71
2023/07/01 07:30:48;;;;;;;7.60;4.25;;;16.80;99.90;;;;;;5071310;28;20032;-71
2023/07/01 07:33:14;;;;;;;6.13;4.80;;;17.10;99.90;;;;;;5054339;28;20102;-72
2023/07/01 07:35:40;;;;;;;5.47;4.93;;;17.10;99.90;;;;;;5072309;28;20403;-71
2023/07/01 07:38:05;;;;;;;10.65;4.90;;;16.90;99.90;;;;;;5072016;28;20636;-72
2023/07/01 07:40:31;;;;;;;5.63;4.47;;;17.00;99.90;;;;;;5072693;28;20047;-72
2023/07/01 07:42:57;;;;;;;5.88;4.63;;;17.00;99.90;;;;;;5071794;28;20052;-71
2023/07/01 07:45:22;;;;;;;5.97;5.20;;;17.00;99.90;;;;;;5053339;28;20095;-71
2023/07/01 07:47:48;;;;;;;6.15;4.30;;;17.00;99.90;;;;;;5071569;28;20032;-71
2023/07/01 07:50:14;;;;;;;5.28;4.68;;;17.20;99.90;;;;;;5071136;28;20038;-71
2023/07/01 07:52:39;;;;;;;7.55;4.22;;;17.10;99.90;;;;;;5071444;28;20144;-71
2023/07/01 07:55:05;;;;;;;6.18;4.25;;;17.10;99.90;;;;;;5071819;28;20036;-72
2023/07/01 07:57:31;;;;;;;5.45;4.47;;;17.10;99.90;;;;;;5053741;28;20086;-72
2023/07/01 07:59:56;;;;;;;4.57;4.00;;;17.30;99.90;;;;;;5052795;28;20483;-71
2023/07/01 08:02:22;;;;;;;6.75;4.28;;;17.10;99.90;;;;;;5071433;28;20033;-72
2023/07/01 08:04:48;;;;;;;4.60;3.70;;;17.30;99.90;;;;;;5070937;28;20044;-71
2023/07/01 08:07:13;;;;;;;5.32;3.90;;;17.30;99.90;;;;;;5070942;28;20042;-72
2023/07/01 08:09:39;;;;;;;6.80;4.47;;;17.40;99.90;;;;;;5071911;28;20037;-72
2023/07/01 08:12:05;;;;;;;6.18;4.30;;;17.20;99.90;;;;;;5063217;28;20492;-73
2023/07/01 08:14:31;;;;;;;6.28;4.60;;;17.30;99.90;;;;;;5066650;28;20082;-71
2023/07/01 08:16:59;;;;;;;4.90;4.00;;;17.40;99.90;;;;;;5057528;28;20033;-72
2023/07/01 08:19:25;;;;;;;6.57;4.82;;;17.50;99.90;;;;;;5069935;28;20036;-72
2023/07/01 08:21:51;;;;;;;6.55;4.85;;;17.50;99.90;;;;;;5052895;28;20044;-72
2023/07/01 08:24:17;;;;;;;5.85;5.03;;;17.50;99.90;;;;;;5057765;28;20037;-71
2023/07/01 08:26:43;;;;;;;6.35;4.47;;;17.40;99.90;;;;;;5052080;28;20505;-71
2023/07/01 08:29:10;;;;;;;5.28;4.32;;;17.50;99.90;;;;;;5051317;28;20040;-71
2023/07/01 08:31:36;;;;;;;6.70;5.22;;;17.60;99.90;;;;;;5032785;28;20140;-72
2023/07/01 08:34:02;;;;;;;5.53;4.93;;;17.40;99.90;;;;;;5057417;28;20044;-72
2023/07/01 08:36:28;;;;;;;36.50;6.90;;;17.50;99.90;;;;;;5071032;28;20522;-71
2023/07/01 08:38:54;;;;;;;7.03;5.20;;;17.70;99.90;;;;;;5052851;28;20086;-71
2023/07/01 08:41:23;;;;;;;6.22;4.57;;;17.70;99.90;;;;;;5070121;28;20028;-72
2023/07/01 08:43:52;;;;;;;7.05;4.60;;;17.60;99.90;;;;;;5053286;28;20040;-72
2023/07/01 08:46:19;;;;;;;7.75;4.50;;;17.70;99.90;;;;;;5053584;28;20045;-73
2023/07/01 08:48:46;;;;;;;4.70;4.20;;;17.60;99.90;;;;;;5052927;28;20044;-72
2023/07/01 08:51:15;;;;;;;6.88;4.93;;;17.90;99.90;;;;;;5070958;28;20044;-72
2023/07/01 08:53:42;;;;;;;8.10;4.90;;;17.70;99.90;;;;;;5070836;28;20051;-71
2023/07/01 08:56:09;;;;;;;6.47;5.03;;;17.90;99.90;;;;;;5070935;28;20555;-70
2023/07/01 08:58:34;;;;;;;5.13;4.55;;;17.70;99.90;;;;;;5070505;28;20119;-70
2023/07/01 09:01:00;;;;;;;5.70;4.63;;;17.80;99.90;;;;;;5070489;28;20133;-70
2023/07/01 09:03:29;;;;;;;6.93;4.70;;;17.70;99.90;;;;;;5052991;28;20048;-70
2023/07/01 09:05:55;;;;;;;5.60;4.70;;;18.00;99.90;;;;;;5071043;28;20036;-70
2023/07/01 09:08:20;;;;;;;5.47;4.50;;;17.90;99.90;;;;;;5070369;28;20043;-70
2023/07/01 09:10:46;;;;;;;4.97;4.47;;;18.00;99.90;;;;;;5071165;28;20086;-70
2023/07/01 09:13:12;;;;;;;7.32;4.40;;;17.80;99.90;;;;;;5074389;28;20077;-70
2023/07/01 09:15:43;;;;;;;8.60;5.20;;;18.00;99.90;;;;;;5074327;28;20040;-70
2023/07/01 09:18:22;;;;;;;5.18;4.35;;;17.80;99.90;;;;;;5073977;28;20081;-70
2023/07/01 09:20:49;;;;;;;5.20;4.70;;;17.90;99.90;;;;;;5074229;28;20408;-74
2023/07/01 09:23:36;;;;;;;5.03;4.53;;;17.80;99.90;;;;;;5039220;28;20032;-74
2023/07/01 09:26:08;;;;;;;5.32;4.57;;;18.10;99.90;;;;;;5055979;28;20044;-74
2023/07/01 09:28:35;;;;;;;5.35;4.63;;;18.10;99.90;;;;;;5055839;28;20044;-73
2023/07/01 09:31:02;;;;;;;6.30;4.60;;;18.30;99.90;;;;;;5055752;28;20044;-73
2023/07/01 09:33:27;;;;;;;5.30;4.80;;;18.30;99.90;;;;;;5074227;28;20115;-75
2023/07/01 09:35:57;;;;;;;5.32;4.47;;;18.10;99.90;;;;;;5056158;28;20040;-73
2023/07/01 09:38:26;;;;;;;4.82;4.22;;;18.10;99.90;;;;;;5055878;28;20059;-75
2023/07/01 09:40:51;;;;;;;5.28;4.45;;;18.20;99.90;;;;;;5055634;28;20047;-74
2023/07/01 09:43:19;;;;;;;5.07;4.40;;;18.20;99.90;;;;;;5055752;28;20048;-73
2023/07/01 09:45:54;;;;;;;6.18;5.32;;;18.10;99.90;;;;;;5053374;28;20045;-73
2023/07/01 09:48:21;;;;;;;6.15;4.47;;;18.40;99.90;;;;;;5047197;28;20040;-73
2023/07/01 09:50:48;;;;;;;4.82;4.32;;;18.30;99.90;;;;;;5055512;28;20068;-73
2023/07/01 09:53:24;;;;;;;5.38;4.15;;;18.30;99.90;;;;;;5064994;28;20037;-73
2023/07/01 09:55:50;;;;;;;5.22;4.25;;;18.40;99.90;;;;;;5055809;28;20049;-73
2023/07/01 09:58:16;;;;;;;7.13;4.47;;;18.60;99.90;;;;;;5073364;28;20040;-74
2023/07/01 10:00:42;;;;;;;4.85;4.03;;;18.50;99.90;;;;;;5049182;28;20044;-76
2023/07/01 10:03:08;;;;;;;5.93;4.78;;;18.60;99.90;;;;;;5061739;28;20040;-75
2023/07/01 10:05:34;;;;;;;5.13;3.83;;;18.60;99.90;;;;;;5051919;28;20151;-75
2023/07/01 10:08:00;;;;;;;4.85;4.18;;;18.70;99.90;;;;;;5055226;28;20467;-73
2023/07/01 10:10:26;;;;;;;4.68;3.50;;;18.60;99.90;;;;;;5073538;28;20032;-73
2023/07/01 10:12:52;;;;;;;4.78;3.80;;;18.80;99.90;;;;;;5055379;28;20036;-73
2023/07/01 10:15:29;;;;;;;4.63;4.15;;;18.60;99.90;;;;;;5055346;28;20040;-75
2023/07/01 10:17:55;;;;;;;5.18;4.00;;;18.80;99.90;;;;;;5073086;28;20036;-74
2023/07/01 10:20:32;;;;;;;5.43;3.85;;;18.60;99.90;;;;;;5054813;28;20568;-75
2023/07/01 10:23:02;;;;;;;5.18;3.75;;;18.70;99.90;;;;;;5054405;28;20561;-75
2023/07/01 10:25:39;;;;;;;6.72;4.00;;;18.90;99.90;;;;;;5052714;28;20068;-73
2023/07/01 10:28:09;;;;;;;5.70;4.40;;;18.60;99.90;;;;;;5070825;28;20032;-73
2023/07/01 10:30:41;;;;;;;4.15;3.70;;;18.70;99.90;;;;;;5072881;28;20025;-75
2023/07/01 10:33:27;;;;;;;4.53;3.60;;;19.00;99.90;;;;;;5052877;28;20040;-75
2023/07/01 10:36:06;;;;;;;7.38;4.30;;;18.80;99.90;;;;;;5069104;28;20074;-75
2023/07/01 10:38:34;;;;;;;5.13;4.07;;;18.80;99.90;;;;;;5043048;28;20131;-73
2023/07/01 10:41:00;;;;;;;4.20;3.55;;;19.00;99.90;;;;;;5043571;28;20037;-72
2023/07/01 10:43:33;;;;;;;4.68;4.18;;;19.00;99.90;;;;;;5052467;28;20064;-73
2023/07/01 10:46:20;;;;;;;5.13;3.47;;;18.80;99.90;;;;;;5052531;28;20079;-73
2023/07/01 10:49:03;;;;;;;5.45;4.30;;;18.80;99.90;;;;;;5052588;28;20048;-73
2023/07/01 10:51:33;;;;;;;5.25;3.63;;;19.00;99.90;;;;;;5034493;28;20484;-73
2023/07/01 10:54:04;;;;;;;4.55;3.83;;;18.90;99.90;;;;;;5052479;28;20044;-73
2023/07/01 10:56:42;;;;;;;4.07;3.60;;;18.80;99.90;;;;;;5054112;28;20033;-73
2023/07/01 10:59:17;;;;;;;5.72;3.95;;;18.90;99.90;;;;;;5056531;28;20048;-73
2023/07/01 11:01:47;;;;;;;5.05;3.38;;;18.70;99.90;;;;;;5070055;28;20059;-73
2023/07/01 11:04:14;;;;;;;3.65;2.95;;;19.00;99.90;;;;;;5072480;28;20231;-74
2023/07/01 11:06:50;;;;;;;4.63;2.78;;;19.00;99.90;;;;;;5055183;28;20044;-74
2023/07/01 11:09:29;;;;;;;2.72;2.28;;;19.00;99.90;;;;;;5054781;28;20045;-75
2023/07/01 11:11:56;;;;;;;3.85;2.53;;;18.80;99.90;;;;;;5057113;28;20039;-75
2023/07/01 11:14:33;;;;;;;15.18;4.05;;;19.00;99.90;;;;;;5072977;28;20120;-74
2023/07/01 11:17:26;;;;;;;4.30;1.80;;;18.80;99.90;;;;;;5073438;28;20396;-75
2023/07/01 11:19:58;;;;;;;3.03;1.05;;;18.90;99.90;;;;;;5054946;28;20040;-75
2023/07/01 11:22:24;;;;;;;2.38;1.23;;;18.80;99.90;;;;;;5073570;28;20068;-75
2023/07/01 11:24:50;;;;;;;1.55;1.13;;;18.50;99.90;;;;;;5072450;28;20086;-75
2023/07/01 11:27:17;;;;;;;1.50;1.10;;;18.80;99.90;;;;;;5072547;28;20435;-76
2023/07/01 11:29:44;;;;;;;1.45;1.10;;;18.80;99.90;;;;;;5056110;28;20045;-76
2023/07/01 11:32:12;;;;;;;3.10;1.35;;;18.80;99.90;;;;;;5071139;28;20496;-75
2023/07/01 11:34:39;;;;;;;2.22;1.20;;;18.70;99.90;;;;;;5069108;28;20090;-74
2023/07/01 11:37:05;;;;;;;2.92;1.10;;;18.90;99.90;;;;;;5071371;28;20119;-75
2023/07/01 11:39:31;;;;;;;1.40;0.82;;;18.90;99.90;;;;;;5054236;28;20085;-72
2023/07/01 11:42:03;;;;;;;1.65;1.30;;;19.00;99.90;;;;;;5036570;28;20040;-71
2023/07/01 11:44:33;;;;;;;2.42;1.60;;;18.90;99.90;;;;;;5071538;28;20044;-71
2023/07/01 11:46:59;;;;;;;2.33;1.80;;;19.10;99.90;;;;;;5053139;28;20098;-71
2023/07/01 11:49:29;;;;;;;1.60;1.33;;;19.20;99.90;;;;;;5071677;28;20068;-71
2023/07/01 11:52:01;;;;;;;2.40;1.60;;;19.30;99.90;;;;;;5053412;28;20044;-71
2023/07/01 11:54:38;;;;;;;2.35;1.58;;;19.00;99.90;;;;;;5071707;28;20471;-71
2023/07/01 11:57:15;;;;;;;3.00;1.92;;;19.00;99.90;;;;;;5070696;28;20115;-71
2023/07/01 11:59:53;;;;;;;29.73;6.78;;;19.00;99.90;;;;;;5052914;28;20072;-71
2023/07/01 12:02:31;;;;;;;11.50;3.75;;;19.30;99.90;;;;;;5071409;28;20120;-71
2023/07/01 12:04:57;;;;;;;2.30;1.75;;;19.30;99.90;;;;;;5053390;28;20070;-71
2023/07/01 12:07:22;;;;;;;2.90;2.05;;;19.30;99.90;;;;;;5071070;28;20080;-71
2023/07/01 12:09:48;;;;;;;2.58;2.20;;;19.30;99.90;;;;;;5071320;28;20075;-71
2023/07/01 12:12:18;;;;;;;4.72;2.35;;;19.50;99.90;;;;;;5071115;28;20064;-71
2023/07/01 12:14:45;;;;;;;6.45;2.85;;;19.70;99.90;;;;;;5053161;28;20044;-71
2023/07/01 12:17:30;;;;;;;6.25;3.00;;;19.80;99.90;;;;;;5052769;28;20048;-71
2023/07/01 12:19:58;;;;;;;9.15;3.47;;;19.80;99.90;;;;;;5070789;28;20048;-71
2023/07/01 12:22:24;;;;;;;5.88;2.95;;;19.90;99.90;;;;;;5053461;28;20040;-71
2023/07/01 12:24:54;;;;;;;4.15;3.50;;;19.80;99.90;;;;;;5070825;28;20051;-71
2023/07/01 12:27:20;;;;;;;6.55;3.63;;;19.80;99.90;;;;;;5070996;28;20047;-71
2023/07/01 12:29:46;;;;;;;68.65;16.08;;;19.70;99.90;;;;;;5071007;28;20120;-71
2023/07/01 12:32:11;;;;;;;10.27;5.20;;;19.60;99.90;;;;;;5053196;28;20028;-71
2023/07/01 12:34:37;;;;;;;7.93;5.15;;;19.50;99.90;;;;;;5071217;28;20028;-71
2023/07/01 12:37:03;;;;;;;6.00;3.80;;;19.30;99.90;;;;;;5070606;28;20123;-71
2023/07/01 12:39:31;;;;;;;7.57;4.70;;;19.30;99.90;;;;;;5071137;28;20040;-71
2023/07/01 12:41:58;;;;;;;7.72;5.22;;;19.30;99.90;;;;;;5070676;28;20507;-71
2023/07/01 12:44:24;;;;;;;7.78;6.10;;;19.30;99.90;;;;;;5070873;28;20037;-71
2023/07/01 12:46:50;;;;;;;9.15;6.03;;;19.10;99.90;;;;;;5055499;28;20124;-71